createdAt,value
2018-02-07T00:00:26.728Z,18.87
2018-02-07T00:01:35.954Z,18.91
2018-02-07T00:02:45.181Z,18.92
2018-02-07T00:03:54.141Z,18.94
2018-02-07T00:05:02.833Z,18.9
2018-02-07T00:06:12.319Z,18.92
2018-02-07T00:07:21.013Z,18.95
2018-02-07T00:08:29.706Z,18.95
2018-02-07T00:09:38.398Z,18.9
2018-02-07T00:10:47.360Z,18.92
2018-02-07T00:11:56.319Z,18.87
2018-02-07T00:13:05.547Z,18.91
2018-02-07T00:14:14.773Z,18.88
2018-02-07T00:15:24.010Z,18.92
2018-02-07T00:16:32.969Z,18.92
2018-02-07T00:17:41.928Z,18.9
2018-02-07T00:18:50.624Z,18.88
2018-02-07T00:19:59.582Z,18.92
2018-02-07T00:21:08.543Z,18.87
2018-02-07T00:22:17.240Z,18.91
2018-02-07T00:23:26.461Z,18.9
2018-02-07T00:24:35.157Z,18.94
2018-02-07T00:25:44.381Z,18.9
2018-02-07T00:26:53.073Z,18.94
2018-02-07T00:28:01.766Z,18.91
2018-02-07T00:29:10.995Z,18.92
2018-02-07T00:30:19.958Z,18.88
2018-02-07T00:31:28.915Z,18.92
2018-02-07T00:32:37.879Z,18.88
2018-02-07T00:33:46.573Z,18.85
2018-02-07T00:34:55.804Z,18.87
2018-02-07T00:36:04.765Z,18.82
2018-02-07T00:37:13.724Z,18.9
2018-02-07T00:38:22.687Z,18.88
2018-02-07T00:39:31.383Z,18.92
2018-02-07T00:40:40.078Z,18.9
2018-02-07T00:41:49.045Z,18.94
2018-02-07T00:42:58.270Z,18.87
2018-02-07T00:44:07.227Z,18.88
2018-02-07T00:45:16.191Z,18.88
2018-02-07T00:46:25.151Z,18.82
2018-02-07T00:47:34.378Z,18.92
2018-02-07T00:48:43.336Z,18.81
2018-02-07T00:49:52.028Z,18.85
2018-02-07T00:51:01.304Z,18.8
2018-02-07T00:52:10.265Z,18.87
2018-02-07T00:53:19.493Z,18.94
2018-02-07T00:54:28.991Z,18.82
2018-02-07T00:55:37.949Z,18.82
2018-02-07T00:56:46.911Z,18.84
2018-02-07T00:57:55.612Z,18.81
2018-02-07T00:59:04.575Z,18.73
2018-02-07T01:00:13.278Z,18.84
2018-02-07T01:01:21.970Z,18.84
2018-02-07T01:02:31.462Z,18.78
2018-02-07T01:03:40.417Z,18.84
2018-02-07T01:04:49.907Z,18.87
2018-02-07T01:05:58.870Z,18.81
2018-02-07T01:07:07.560Z,18.87
2018-02-07T01:08:16.790Z,18.82
2018-02-07T01:09:26.279Z,18.82
2018-02-07T01:10:35.507Z,18.78
2018-02-07T01:11:44.730Z,18.85
2018-02-07T01:12:53.423Z,18.87
2018-02-07T01:14:02.651Z,18.82
2018-02-07T01:15:11.613Z,18.87
2018-02-07T01:16:20.573Z,18.85
2018-02-07T01:17:29.533Z,18.87
2018-02-07T01:18:38.557Z,18.81
2018-02-07T01:19:47.497Z,18.87
2018-02-07T01:20:56.735Z,18.82
2018-02-07T01:22:05.696Z,18.84
2018-02-07T01:23:14.668Z,18.84
2018-02-07T01:24:23.624Z,18.85
2018-02-07T01:25:32.589Z,18.76
2018-02-07T01:26:41.545Z,18.73
2018-02-07T01:27:51.032Z,18.8
2018-02-07T01:28:59.991Z,18.75
2018-02-07T01:30:08.684Z,18.78
2018-02-07T01:31:17.650Z,18.85
2018-02-07T01:32:26.340Z,18.75
2018-02-07T01:33:35.035Z,18.84
2018-02-07T01:34:44.261Z,18.84
2018-02-07T01:35:52.958Z,18.75
2018-02-07T01:37:01.915Z,18.8
2018-02-07T01:38:11.137Z,18.81
2018-02-07T01:39:19.832Z,18.8
2018-02-07T01:40:28.789Z,18.8
2018-02-07T01:41:38.018Z,18.81
2018-02-07T01:42:46.980Z,18.73
2018-02-07T01:43:55.673Z,18.73
2018-02-07T01:45:04.631Z,18.8
2018-02-07T01:46:14.125Z,18.75
2018-02-07T01:47:22.818Z,18.75
2018-02-07T01:48:31.778Z,18.8
2018-02-07T01:49:41.002Z,18.76
2018-02-07T01:50:50.226Z,18.69
2018-02-07T01:51:58.917Z,18.75
2018-02-07T01:53:08.415Z,18.73
2018-02-07T01:54:17.108Z,18.73
2018-02-07T01:55:25.804Z,18.75
2018-02-07T01:56:34.761Z,18.76
2018-02-07T01:57:44.254Z,18.73
2018-02-07T01:58:53.477Z,18.75
2018-02-07T02:00:02.973Z,18.72
2018-02-07T02:01:11.665Z,18.7
2018-02-07T02:02:20.625Z,18.76
2018-02-07T02:03:29.585Z,18.72
2018-02-07T02:04:38.546Z,18.76
2018-02-07T02:05:47.507Z,18.75
2018-02-07T02:06:56.466Z,18.73
2018-02-07T02:08:05.690Z,18.75
2018-02-07T02:09:14.385Z,18.69
2018-02-07T02:10:23.346Z,18.72
2018-02-07T02:11:32.311Z,18.76
2018-02-07T02:12:41.272Z,18.78
2018-02-07T02:13:50.501Z,18.7
2018-02-07T02:14:59.194Z,18.81
2018-02-07T02:16:08.421Z,18.75
2018-02-07T02:17:17.114Z,18.75
2018-02-07T02:18:26.075Z,18.69
2018-02-07T02:19:35.034Z,18.69
2018-02-07T02:20:44.535Z,18.73
2018-02-07T02:21:53.237Z,18.75
2018-02-07T02:23:02.202Z,18.66
2018-02-07T02:24:10.900Z,18.67
2018-02-07T02:25:19.865Z,18.75
2018-02-07T02:26:28.831Z,18.73
2018-02-07T02:27:37.526Z,18.75
2018-02-07T02:28:46.486Z,18.78
2018-02-07T02:29:55.717Z,18.75
2018-02-07T02:31:04.943Z,18.7
2018-02-07T02:32:13.901Z,18.67
2018-02-07T02:33:22.857Z,18.66
2018-02-07T02:34:31.817Z,18.65
2018-02-07T02:35:40.512Z,18.69
2018-02-07T02:36:49.737Z,18.65
2018-02-07T02:37:59.501Z,18.66
2018-02-07T02:39:08.726Z,18.7
2018-02-07T02:40:17.686Z,18.66
2018-02-07T02:41:26.387Z,18.69
2018-02-07T02:42:35.079Z,18.66
2018-02-07T02:43:44.577Z,18.72
2018-02-07T02:44:53.809Z,18.7
2018-02-07T02:46:02.775Z,18.67
2018-02-07T02:47:12.000Z,18.67
2018-02-07T02:48:20.692Z,18.67
2018-02-07T02:49:29.925Z,18.63
2018-02-07T02:50:39.152Z,18.65
2018-02-07T02:51:48.109Z,18.54
2018-02-07T02:52:57.335Z,18.6
2018-02-07T02:54:07.100Z,18.62
2018-02-07T02:55:16.607Z,18.62
2018-02-07T02:56:25.299Z,18.65
2018-02-07T02:57:34.257Z,18.66
2018-02-07T02:58:43.489Z,18.65
2018-02-07T02:59:52.716Z,18.58
2018-02-07T03:01:01.676Z,18.65
2018-02-07T03:02:10.371Z,18.58
2018-02-07T03:03:19.068Z,18.58
2018-02-07T03:04:28.294Z,18.65
2018-02-07T03:05:37.254Z,18.6
2018-02-07T03:06:45.952Z,18.6
2018-02-07T03:07:54.908Z,18.58
2018-02-07T03:09:03.603Z,18.69
2018-02-07T03:10:12.864Z,18.58
2018-02-07T03:11:22.358Z,18.66
2018-02-07T03:12:31.319Z,18.6
2018-02-07T03:13:40.274Z,18.57
2018-02-07T03:14:49.502Z,18.58
2018-02-07T03:15:58.462Z,18.57
2018-02-07T03:17:07.419Z,18.57
2018-02-07T03:18:16.379Z,18.58
2018-02-07T03:19:25.075Z,18.63
2018-02-07T03:20:34.036Z,18.58
2018-02-07T03:21:42.733Z,18.5
2018-02-07T03:22:51.701Z,18.52
2018-02-07T03:24:00.393Z,18.58
2018-02-07T03:25:09.350Z,18.54
2018-02-07T03:26:18.308Z,18.51
2018-02-07T03:27:27.271Z,18.62
2018-02-07T03:28:35.965Z,18.52
2018-02-07T03:29:44.654Z,18.51
2018-02-07T03:30:53.882Z,18.58
2018-02-07T03:32:02.847Z,18.58
2018-02-07T03:33:12.341Z,18.55
2018-02-07T03:34:21.034Z,18.5
2018-02-07T03:35:30.526Z,18.52
2018-02-07T03:36:39.755Z,18.48
2018-02-07T03:37:48.715Z,18.51
2018-02-07T03:38:57.676Z,18.52
2018-02-07T03:40:06.898Z,18.57
2018-02-07T03:41:16.214Z,18.51
2018-02-07T03:42:24.909Z,18.52
2018-02-07T03:43:33.871Z,18.55
2018-02-07T03:44:42.831Z,18.58
2018-02-07T03:45:51.789Z,18.58
2018-02-07T03:47:00.486Z,18.58
2018-02-07T03:48:09.718Z,18.5
2018-02-07T03:49:18.674Z,18.58
2018-02-07T03:50:27.633Z,18.58
2018-02-07T03:51:36.860Z,18.51
2018-02-07T03:52:45.817Z,18.51
2018-02-07T03:53:54.776Z,18.5
2018-02-07T03:55:03.736Z,18.52
2018-02-07T03:56:12.969Z,18.52
2018-02-07T03:57:21.923Z,18.52
2018-02-07T03:58:30.602Z,18.47
2018-02-07T03:59:39.282Z,18.5
2018-02-07T04:00:48.235Z,18.52
2018-02-07T04:01:56.916Z,18.65
2018-02-07T04:03:06.395Z,18.51
2018-02-07T04:04:15.341Z,18.57
2018-02-07T04:05:24.349Z,18.51
2018-02-07T04:06:33.033Z,18.57
2018-02-07T04:07:41.984Z,18.52
2018-02-07T04:08:50.931Z,18.5
2018-02-07T04:09:59.879Z,18.48
2018-02-07T04:11:08.830Z,18.52
2018-02-07T04:12:17.517Z,18.54
2018-02-07T04:13:26.473Z,18.52
2018-02-07T04:14:35.155Z,18.41
2018-02-07T04:15:44.103Z,18.44
2018-02-07T04:16:53.048Z,18.47
2018-02-07T04:18:01.732Z,18.52
2018-02-07T04:19:11.214Z,18.45
2018-02-07T04:20:20.171Z,18.51
2018-02-07T04:21:29.112Z,18.55
2018-02-07T04:22:37.792Z,18.44
2018-02-07T04:23:46.740Z,18.41
2018-02-07T04:24:55.956Z,18.58
2018-02-07T04:26:04.904Z,18.52
2018-02-07T04:27:13.588Z,18.51
2018-02-07T04:28:22.275Z,18.48
2018-02-07T04:29:30.957Z,18.42
2018-02-07T04:30:39.919Z,18.5
2018-02-07T04:31:48.869Z,18.47
2018-02-07T04:32:57.551Z,18.55
2018-02-07T04:34:06.764Z,18.51
2018-02-07T04:35:15.712Z,18.58
2018-02-07T04:36:24.662Z,18.5
2018-02-07T04:37:33.609Z,18.51
2018-02-07T04:38:42.552Z,18.6
2018-02-07T04:39:51.502Z,18.55
2018-02-07T04:41:00.984Z,18.51
2018-02-07T04:42:09.666Z,18.51
2018-02-07T04:43:19.142Z,18.5
2018-02-07T04:44:27.826Z,18.54
2018-02-07T04:45:36.773Z,18.57
2018-02-07T04:46:45.986Z,18.48
2018-02-07T04:47:54.936Z,18.52
2018-02-07T04:49:04.450Z,18.45
2018-02-07T04:50:13.402Z,18.44
2018-02-07T04:51:22.615Z,18.47
2018-02-07T04:52:31.301Z,18.44
2018-02-07T04:53:39.984Z,18.5
2018-02-07T04:54:48.671Z,18.47
2018-02-07T04:55:57.886Z,18.45
2018-02-07T04:57:07.370Z,18.45
2018-02-07T04:58:16.314Z,18.48
2018-02-07T04:59:25.266Z,18.44
2018-02-07T05:00:33.949Z,18.51
2018-02-07T05:01:42.902Z,18.47
2018-02-07T05:02:51.587Z,18.51
2018-02-07T05:04:00.539Z,18.44
2018-02-07T05:05:09.222Z,18.51
2018-02-07T05:06:18.164Z,18.37
2018-02-07T05:07:27.114Z,18.45
2018-02-07T05:08:36.061Z,18.51
2018-02-07T05:09:45.269Z,18.52
2018-02-07T05:10:54.220Z,18.39
2018-02-07T05:12:02.904Z,18.52
2018-02-07T05:13:12.125Z,18.44
2018-02-07T05:14:21.072Z,18.51
2018-02-07T05:15:30.021Z,18.47
2018-02-07T05:16:38.704Z,18.42
2018-02-07T05:17:47.383Z,18.48
2018-02-07T05:18:56.067Z,18.51
2018-02-07T05:20:05.015Z,18.47
2018-02-07T05:21:13.696Z,18.52
2018-02-07T05:22:22.643Z,18.5
2018-02-07T05:23:31.592Z,18.5
2018-02-07T05:24:40.539Z,18.51
2018-02-07T05:25:50.286Z,18.48
2018-02-07T05:26:58.971Z,18.42
2018-02-07T05:28:08.187Z,18.54
2018-02-07T05:29:17.401Z,18.58
2018-02-07T05:30:26.347Z,18.48
2018-02-07T05:31:35.031Z,18.54
2018-02-07T05:32:44.246Z,18.58
2018-02-07T05:33:53.490Z,18.57
2018-02-07T05:35:02.446Z,18.52
2018-02-07T05:36:11.396Z,18.6
2018-02-07T05:37:20.079Z,18.54
2018-02-07T05:38:28.762Z,18.65
2018-02-07T05:39:37.712Z,18.6
2018-02-07T05:40:46.924Z,18.52
2018-02-07T05:41:56.139Z,18.57
2018-02-07T05:43:04.823Z,18.57
2018-02-07T05:44:13.772Z,18.58
2018-02-07T05:45:22.453Z,18.58
2018-02-07T05:46:32.198Z,18.63
2018-02-07T05:47:40.878Z,18.54
2018-02-07T05:48:50.091Z,18.62
2018-02-07T05:49:59.034Z,18.6
2018-02-07T05:51:08.513Z,18.57
2018-02-07T05:52:17.464Z,18.7
2018-02-07T05:53:26.406Z,18.6
2018-02-07T05:54:35.351Z,18.7
2018-02-07T05:55:44.572Z,18.66
2018-02-07T05:56:53.522Z,18.65
2018-02-07T05:58:02.203Z,18.63
2018-02-07T05:59:10.883Z,18.69
2018-02-07T06:00:19.837Z,18.65
2018-02-07T06:01:28.783Z,18.66
2018-02-07T06:02:37.734Z,18.62
2018-02-07T06:03:46.680Z,18.65
2018-02-07T06:04:55.896Z,18.65
2018-02-07T06:06:05.121Z,18.58
2018-02-07T06:07:14.388Z,18.63
2018-02-07T06:08:23.598Z,18.62
2018-02-07T06:09:32.544Z,18.62
2018-02-07T06:10:41.232Z,18.63
2018-02-07T06:11:49.917Z,18.65
2018-02-07T06:12:58.598Z,18.62
2018-02-07T06:14:07.548Z,18.62
2018-02-07T06:15:16.506Z,18.69
2018-02-07T06:16:25.192Z,18.72
2018-02-07T06:17:34.404Z,18.7
2018-02-07T06:18:43.626Z,18.72
2018-02-07T06:19:52.575Z,18.66
2018-02-07T06:21:01.788Z,18.65
2018-02-07T06:22:10.472Z,18.6
2018-02-07T06:23:19.154Z,18.7
2018-02-07T06:24:27.835Z,18.66
2018-02-07T06:25:36.783Z,18.65
2018-02-07T06:26:45.729Z,18.65
2018-02-07T06:27:54.681Z,18.65
2018-02-07T06:29:03.629Z,18.67
2018-02-07T06:30:12.314Z,18.58
2018-02-07T06:31:21.269Z,18.55
2018-02-07T06:32:29.953Z,18.6
2018-02-07T06:33:38.899Z,18.6
2018-02-07T06:34:48.112Z,18.65
2018-02-07T06:35:57.593Z,18.6
2018-02-07T06:37:06.807Z,18.65
2018-02-07T06:38:15.490Z,18.54
2018-02-07T06:39:24.966Z,18.55
2018-02-07T06:40:34.447Z,18.52
2018-02-07T06:41:43.390Z,18.6
2018-02-07T06:42:52.873Z,18.5
2018-02-07T06:44:01.820Z,18.58
2018-02-07T06:45:10.505Z,18.62
2018-02-07T06:46:19.455Z,18.58
2018-02-07T06:47:28.670Z,18.55
2018-02-07T06:48:37.615Z,18.58
2018-02-07T06:49:46.834Z,18.52
2018-02-07T06:50:56.065Z,18.6
2018-02-07T06:52:05.279Z,18.54
2018-02-07T06:53:13.963Z,18.62
2018-02-07T06:54:22.645Z,18.63
2018-02-07T06:55:31.329Z,18.54
2018-02-07T06:56:40.544Z,18.55
2018-02-07T06:57:49.523Z,18.63
2018-02-07T06:58:59.267Z,18.54
2018-02-07T07:00:08.214Z,18.62
2018-02-07T07:01:17.697Z,18.63
2018-02-07T07:02:26.912Z,18.58
2018-02-07T07:03:35.595Z,18.6
2018-02-07T07:04:44.542Z,18.58
2018-02-07T07:05:53.489Z,18.58
2018-02-07T07:07:02.440Z,18.62
2018-02-07T07:08:11.920Z,18.58
2018-02-07T07:09:20.873Z,18.58
2018-02-07T07:10:30.355Z,18.65
2018-02-07T07:11:39.568Z,18.7
2018-02-07T07:12:48.254Z,18.65
2018-02-07T07:13:57.200Z,18.63
2018-02-07T07:15:06.411Z,18.7
2018-02-07T07:16:15.625Z,18.69
2018-02-07T07:17:24.574Z,18.63
2018-02-07T07:18:33.525Z,18.67
2018-02-07T07:19:42.737Z,18.65
2018-02-07T07:20:51.690Z,18.63
2018-02-07T07:22:00.903Z,18.69
2018-02-07T07:23:10.388Z,18.72
2018-02-07T07:24:19.341Z,18.69
2018-02-07T07:25:28.820Z,18.69
2018-02-07T07:26:37.768Z,18.72
2018-02-07T07:27:46.984Z,18.65
2018-02-07T07:28:56.466Z,18.67
2018-02-07T07:30:05.690Z,18.63
2018-02-07T07:31:14.637Z,18.67
2018-02-07T07:32:23.594Z,18.69
2018-02-07T07:33:32.853Z,18.65
2018-02-07T07:34:41.536Z,18.67
2018-02-07T07:35:50.483Z,18.58
2018-02-07T07:36:59.427Z,18.44
2018-02-07T07:38:08.385Z,18.52
2018-02-07T07:39:17.330Z,18.45
2018-02-07T07:40:26.014Z,18.52
2018-02-07T07:41:34.968Z,18.5
2018-02-07T07:42:44.182Z,18.5
2018-02-07T07:43:52.865Z,18.5
2018-02-07T07:45:01.812Z,18.5
2018-02-07T07:46:10.761Z,18.44
2018-02-07T07:47:19.975Z,18.45
2018-02-07T07:48:29.451Z,18.44
2018-02-07T07:49:38.133Z,18.48
2018-02-07T07:50:46.828Z,18.51
2018-02-07T07:51:56.043Z,18.51
2018-02-07T07:53:04.726Z,18.42
2018-02-07T07:54:13.409Z,18.52
2018-02-07T07:55:22.884Z,18.54
2018-02-07T07:56:31.836Z,18.52
2018-02-07T07:57:41.044Z,18.45
2018-02-07T07:58:50.256Z,18.52
2018-02-07T07:59:58.939Z,18.48
2018-02-07T08:01:07.620Z,18.5
2018-02-07T08:02:16.304Z,18.5
2018-02-07T08:03:25.255Z,18.51
2018-02-07T08:04:33.937Z,18.44
2018-02-07T08:05:42.886Z,18.42
2018-02-07T08:06:51.834Z,18.41
2018-02-07T08:08:00.778Z,18.37
2018-02-07T08:09:09.996Z,18.48
2018-02-07T08:10:18.946Z,18.44
2018-02-07T08:11:28.424Z,18.41
2018-02-07T08:12:37.371Z,18.45
2018-02-07T08:13:46.587Z,18.39
2018-02-07T08:14:55.800Z,18.5
2018-02-07T08:16:05.023Z,18.48
2018-02-07T08:17:13.977Z,18.52
2018-02-07T08:18:22.929Z,18.54
2018-02-07T08:19:32.141Z,18.48
2018-02-07T08:20:41.086Z,18.48
2018-02-07T08:21:50.037Z,18.48
2018-02-07T08:22:58.984Z,18.52
2018-02-07T08:24:07.669Z,18.39
2018-02-07T08:25:16.620Z,18.5
2018-02-07T08:26:25.306Z,18.52
2018-02-07T08:27:33.989Z,18.52
2018-02-07T08:28:43.203Z,18.47
2018-02-07T08:29:52.413Z,18.5
2018-02-07T08:31:01.403Z,18.54
2018-02-07T08:32:10.656Z,18.5
2018-02-07T08:33:19.873Z,18.48
2018-02-07T08:34:28.811Z,18.51
2018-02-07T08:35:37.759Z,18.44
2018-02-07T08:36:46.707Z,18.45
2018-02-07T08:37:55.917Z,18.44
2018-02-07T08:39:04.864Z,18.54
2018-02-07T08:40:14.073Z,18.41
2018-02-07T08:41:23.554Z,18.45
2018-02-07T08:42:32.496Z,18.48
2018-02-07T08:43:41.440Z,18.41
2018-02-07T08:44:50.392Z,18.48
2018-02-07T08:45:59.341Z,18.48
2018-02-07T08:47:08.564Z,18.48
2018-02-07T08:48:17.249Z,18.48
2018-02-07T08:49:26.205Z,18.39
2018-02-07T08:50:35.152Z,18.5
2018-02-07T08:51:44.099Z,18.52
2018-02-07T08:52:52.783Z,18.44
2018-02-07T08:54:01.469Z,18.48
2018-02-07T08:55:10.414Z,18.44
2018-02-07T08:56:19.891Z,18.45
2018-02-07T08:57:29.366Z,18.42
2018-02-07T08:58:38.314Z,18.48
2018-02-07T08:59:47.531Z,18.45
2018-02-07T09:00:56.476Z,18.45
2018-02-07T09:02:05.424Z,18.39
2018-02-07T09:03:14.684Z,18.48
2018-02-07T09:04:24.486Z,18.42
2018-02-07T09:05:33.169Z,18.5
2018-02-07T09:06:41.851Z,18.39
2018-02-07T09:07:50.532Z,18.52
2018-02-07T09:09:00.018Z,18.42
2018-02-07T09:10:09.239Z,18.47
2018-02-07T09:11:17.920Z,18.45
2018-02-07T09:12:26.868Z,18.45
2018-02-07T09:13:35.818Z,18.45
2018-02-07T09:14:44.765Z,18.48
2018-02-07T09:15:53.980Z,18.48
2018-02-07T09:17:03.202Z,18.5
2018-02-07T09:18:12.417Z,18.5
2018-02-07T09:19:21.101Z,18.5
2018-02-07T09:20:30.052Z,18.52
2018-02-07T09:21:39.000Z,18.52
2018-02-07T09:22:47.945Z,18.51
2018-02-07T09:23:56.895Z,18.41
2018-02-07T09:25:06.108Z,18.5
2018-02-07T09:26:15.058Z,18.47
2018-02-07T09:27:24.264Z,18.47
2018-02-07T09:28:33.477Z,18.5
2018-02-07T09:29:42.692Z,18.39
2018-02-07T09:30:51.640Z,18.5
2018-02-07T09:32:00.856Z,18.45
2018-02-07T09:33:09.538Z,18.51
2018-02-07T09:34:18.763Z,18.54
2018-02-07T09:35:27.974Z,18.44
2018-02-07T09:36:36.922Z,18.47
2018-02-07T09:37:46.135Z,18.45
2018-02-07T09:38:54.820Z,18.42
2018-02-07T09:40:03.506Z,18.41
2018-02-07T09:41:12.724Z,18.52
2018-02-07T09:42:21.939Z,18.5
2018-02-07T09:43:31.713Z,18.48
2018-02-07T09:44:40.396Z,18.48
2018-02-07T09:45:49.346Z,18.5
2018-02-07T09:46:58.293Z,18.5
2018-02-07T09:48:08.038Z,18.47
2018-02-07T09:49:16.717Z,18.5
2018-02-07T09:50:25.665Z,18.48
2018-02-07T09:51:34.347Z,18.47
2018-02-07T09:52:43.562Z,18.52
2018-02-07T09:53:52.514Z,18.5
2018-02-07T09:55:01.463Z,18.47
2018-02-07T09:56:10.936Z,18.5
2018-02-07T09:57:19.884Z,18.5
2018-02-07T09:58:28.566Z,18.48
2018-02-07T09:59:37.780Z,18.45
2018-02-07T10:00:47.004Z,18.42
2018-02-07T10:01:56.480Z,18.39
2018-02-07T10:03:05.432Z,18.47
2018-02-07T10:04:46.195Z,18.52
2018-02-07T10:05:55.458Z,18.48
2018-02-07T10:07:04.403Z,18.5
2018-02-07T10:08:13.082Z,18.5
2018-02-07T10:09:21.766Z,18.48
2018-02-07T10:10:30.460Z,18.48
2018-02-07T10:11:39.139Z,18.5
2018-02-07T10:12:47.821Z,18.52
2018-02-07T10:13:56.507Z,18.5
2018-02-07T10:15:05.184Z,18.45
2018-02-07T10:16:14.131Z,18.52
2018-02-07T10:17:22.818Z,18.47
2018-02-07T10:18:32.038Z,18.51
2018-02-07T10:19:41.257Z,18.51
2018-02-07T10:20:49.940Z,18.5
2018-02-07T10:21:59.156Z,18.45
2018-02-07T10:23:08.102Z,18.47
2018-02-07T10:24:17.047Z,18.5
2018-02-07T10:25:26.254Z,18.58
2018-02-07T10:26:34.937Z,18.51
2018-02-07T10:27:44.413Z,18.51
2018-02-07T10:28:53.100Z,18.55
2018-02-07T10:30:02.577Z,18.55
2018-02-07T10:31:11.525Z,18.54
2018-02-07T10:32:20.476Z,18.57
2018-02-07T10:33:29.158Z,18.66
2018-02-07T10:34:38.645Z,18.66
2018-02-07T10:35:48.125Z,18.73
2018-02-07T10:36:57.072Z,18.73
2018-02-07T10:38:05.757Z,18.78
2018-02-07T10:39:14.444Z,18.73
2018-02-07T10:40:23.124Z,18.87
2018-02-07T10:41:32.070Z,18.85
2018-02-07T10:42:41.023Z,18.82
2018-02-07T10:43:49.969Z,18.87
2018-02-07T10:44:58.918Z,18.8
2018-02-07T10:46:07.868Z,18.92
2018-02-07T10:47:16.552Z,18.99
2018-02-07T10:48:25.235Z,18.92
2018-02-07T10:49:34.716Z,18.94
2018-02-07T10:50:43.399Z,19.07
2018-02-07T10:51:52.353Z,19.02
2018-02-07T10:53:02.099Z,19.02
2018-02-07T10:54:10.776Z,19
2018-02-07T10:55:19.724Z,19.04
2018-02-07T10:56:28.672Z,19.07
2018-02-07T10:57:37.355Z,19.07
2018-02-07T10:58:46.836Z,19.07
2018-02-07T10:59:55.518Z,19
2018-02-07T11:01:04.472Z,19.02
2018-02-07T11:02:13.156Z,19.08
2018-02-07T11:03:22.104Z,19.08
2018-02-07T11:04:31.055Z,19.19
2018-02-07T11:05:40.004Z,19.18
2018-02-07T11:06:48.693Z,19.1
2018-02-07T11:07:58.170Z,19.11
2018-02-07T11:09:07.162Z,19.11
2018-02-07T11:10:16.377Z,19.19
2018-02-07T11:11:25.325Z,19.19
2018-02-07T11:12:34.274Z,19.25
2018-02-07T11:13:43.747Z,19.21
2018-02-07T11:14:52.431Z,19.22
2018-02-07T11:16:01.114Z,19.25
2018-02-07T11:17:09.804Z,19.23
2018-02-07T11:18:19.017Z,19.26
2018-02-07T11:19:28.233Z,19.29
2018-02-07T11:20:37.176Z,19.28
2018-02-07T11:21:46.406Z,19.28
2018-02-07T11:22:55.623Z,19.36
2018-02-07T11:24:04.575Z,19.31
2018-02-07T11:25:13.522Z,19.28
2018-02-07T11:26:22.206Z,19.28
2018-02-07T11:27:31.157Z,19.28
2018-02-07T11:28:40.371Z,19.33
2018-02-07T11:29:49.054Z,19.32
2018-02-07T11:30:57.736Z,19.39
2018-02-07T11:32:06.685Z,19.36
2018-02-07T11:33:15.894Z,19.36
2018-02-07T11:34:25.371Z,19.4
2018-02-07T11:35:34.851Z,19.44
2018-02-07T11:36:43.800Z,19.47
2018-02-07T11:37:53.014Z,19.48
2018-02-07T11:39:01.963Z,19.39
2018-02-07T11:40:11.446Z,19.37
2018-02-07T11:41:20.395Z,19.5
2018-02-07T11:42:29.343Z,19.48
2018-02-07T11:43:38.027Z,19.46
2018-02-07T11:44:46.978Z,19.5
2018-02-07T11:45:56.189Z,19.47
2018-02-07T11:47:04.873Z,19.48
2018-02-07T11:48:13.825Z,19.47
2018-02-07T11:49:23.041Z,19.5
2018-02-07T11:50:31.991Z,19.54
2018-02-07T11:51:40.940Z,19.48
2018-02-07T11:52:49.887Z,19.5
2018-02-07T11:53:58.833Z,19.51
2018-02-07T11:55:08.054Z,19.55
2018-02-07T11:56:17.008Z,19.56
2018-02-07T11:57:26.269Z,19.59
2018-02-07T11:58:35.213Z,19.58
2018-02-07T11:59:43.896Z,19.55
2018-02-07T12:00:53.110Z,19.63
2018-02-07T12:02:02.853Z,19.55
2018-02-07T12:03:11.854Z,19.51
2018-02-07T12:04:20.486Z,19.62
2018-02-07T12:05:29.439Z,19.63
2018-02-07T12:06:38.652Z,19.66
2018-02-07T12:07:47.866Z,19.73
2018-02-07T12:08:57.081Z,19.71
2018-02-07T12:10:06.038Z,19.71
2018-02-07T12:11:15.252Z,19.73
2018-02-07T12:12:24.472Z,19.8
2018-02-07T12:13:33.151Z,19.8
2018-02-07T12:14:42.365Z,19.83
2018-02-07T12:15:51.047Z,19.98
2018-02-07T12:17:00.266Z,20.03
2018-02-07T12:18:09.477Z,20.01
2018-02-07T12:19:18.173Z,19.99
2018-02-07T12:20:27.388Z,19.91
2018-02-07T12:21:36.072Z,19.88
2018-02-07T12:22:45.280Z,19.81
2018-02-07T12:23:54.226Z,19.77
2018-02-07T12:25:02.909Z,19.77
2018-02-07T12:26:11.861Z,19.83
2018-02-07T12:27:20.814Z,19.84
2018-02-07T12:28:30.068Z,19.71
2018-02-07T12:29:38.756Z,19.73
2018-02-07T12:30:47.440Z,19.71
2018-02-07T12:31:56.125Z,19.73
2018-02-07T12:33:04.809Z,19.71
2018-02-07T12:34:14.027Z,19.69
2018-02-07T12:35:22.985Z,19.74
2018-02-07T12:36:31.670Z,19.68
2018-02-07T12:37:41.147Z,19.71
2018-02-07T12:38:49.831Z,19.68
2018-02-07T12:39:58.776Z,19.65
2018-02-07T12:41:07.995Z,19.58
2018-02-07T12:42:17.212Z,19.59
2018-02-07T12:43:25.897Z,19.59
2018-02-07T12:44:34.579Z,19.61
2018-02-07T12:45:43.263Z,19.58
2018-02-07T12:46:52.238Z,19.59
2018-02-07T12:48:01.453Z,19.61
2018-02-07T12:49:10.397Z,19.55
2018-02-07T12:50:19.612Z,19.62
2018-02-07T12:51:28.565Z,19.58
2018-02-07T12:52:37.778Z,19.58
2018-02-07T12:53:46.721Z,19.63
2018-02-07T12:54:55.674Z,19.58
2018-02-07T12:56:04.883Z,19.56
2018-02-07T12:57:14.104Z,19.65
2018-02-07T12:58:22.784Z,19.56
2018-02-07T12:59:31.738Z,19.51
2018-02-07T13:00:41.008Z,19.55
2018-02-07T13:01:49.693Z,19.59
2018-02-07T13:02:58.376Z,19.59
2018-02-07T13:04:07.326Z,19.62
2018-02-07T13:05:16.271Z,19.56
2018-02-07T13:06:25.484Z,19.61
2018-02-07T13:07:34.169Z,19.56
2018-02-07T13:08:43.654Z,19.58
2018-02-07T13:09:52.339Z,19.61
2018-02-07T13:11:01.555Z,19.55
2018-02-07T13:12:11.038Z,19.58
2018-02-07T13:13:19.724Z,19.56
2018-02-07T13:14:29.201Z,19.62
2018-02-07T13:15:38.416Z,19.56
2018-02-07T13:16:47.363Z,19.62
2018-02-07T13:17:56.049Z,19.56
2018-02-07T13:19:04.996Z,19.55
2018-02-07T13:20:14.475Z,19.55
2018-02-07T13:21:23.421Z,19.59
2018-02-07T13:22:32.635Z,19.51
2018-02-07T13:23:41.584Z,19.51
2018-02-07T13:24:51.329Z,19.58
2018-02-07T13:26:00.809Z,19.47
2018-02-07T13:27:09.757Z,19.47
2018-02-07T13:28:18.442Z,19.51
2018-02-07T13:29:27.128Z,19.48
2018-02-07T13:30:36.342Z,19.54
2018-02-07T13:31:45.290Z,19.56
2018-02-07T13:32:54.765Z,19.48
2018-02-07T13:34:04.245Z,19.5
2018-02-07T13:35:12.928Z,19.48
2018-02-07T13:36:22.144Z,19.51
2018-02-07T13:37:31.092Z,19.51
2018-02-07T13:38:40.605Z,19.55
2018-02-07T13:39:49.823Z,19.48
2018-02-07T13:40:58.773Z,19.56
2018-02-07T13:42:07.723Z,19.5
2018-02-07T13:43:16.939Z,19.48
2018-02-07T13:44:26.153Z,19.46
2018-02-07T13:45:35.104Z,19.56
2018-02-07T13:46:44.052Z,19.47
2018-02-07T13:47:53.791Z,19.47
2018-02-07T13:49:02.477Z,19.47
2018-02-07T13:50:11.219Z,19.46
2018-02-07T13:51:20.444Z,19.47
2018-02-07T13:52:29.395Z,19.41
2018-02-07T13:53:38.344Z,19.4
2018-02-07T13:54:47.290Z,19.43
2018-02-07T13:55:55.971Z,19.39
2018-02-07T13:57:04.922Z,19.37
2018-02-07T13:58:13.869Z,19.37
2018-02-07T13:59:22.552Z,19.41
2018-02-07T14:00:31.235Z,19.4
2018-02-07T14:01:40.182Z,19.39
2018-02-07T14:02:49.138Z,19.47
2018-02-07T14:03:58.353Z,19.44
2018-02-07T14:05:07.841Z,19.37
2018-02-07T14:06:16.791Z,19.47
2018-02-07T14:07:25.738Z,19.36
2018-02-07T14:08:34.423Z,19.39
2018-02-07T14:09:43.379Z,19.4
2018-02-07T14:10:52.326Z,19.39
2018-02-07T14:12:01.543Z,19.33
2018-02-07T14:13:10.493Z,19.4
2018-02-07T14:14:19.709Z,19.39
2018-02-07T14:15:28.397Z,19.4
2018-02-07T14:16:37.082Z,19.46
2018-02-07T14:17:46.043Z,19.43
2018-02-07T14:18:54.732Z,19.4
2018-02-07T14:20:04.488Z,19.39
2018-02-07T14:21:13.437Z,19.29
2018-02-07T14:22:22.125Z,19.33
2018-02-07T14:23:31.337Z,19.25
2018-02-07T14:24:40.552Z,19.22
2018-02-07T14:25:49.238Z,19.36
2018-02-07T14:26:58.724Z,19.26
2018-02-07T14:28:07.559Z,19.32
2018-02-07T14:29:16.824Z,19.39
2018-02-07T14:30:26.469Z,19.31
2018-02-07T14:31:35.275Z,19.29
2018-02-07T14:32:44.528Z,19.32
2018-02-07T14:33:53.480Z,19.32
2018-02-07T14:35:02.754Z,19.32
2018-02-07T14:36:11.492Z,19.33
2018-02-07T14:37:20.757Z,19.29
2018-02-07T14:38:29.735Z,19.31
2018-02-07T14:39:38.684Z,19.28
2018-02-07T14:40:47.628Z,19.33
2018-02-07T14:41:56.840Z,19.28
2018-02-07T14:43:05.524Z,19.29
2018-02-07T14:44:14.741Z,19.29
2018-02-07T14:45:23.690Z,19.32
2018-02-07T14:46:32.640Z,19.19
2018-02-07T14:47:41.587Z,19.02
2018-02-07T14:48:50.537Z,19
2018-02-07T14:49:59.485Z,18.92
2018-02-07T14:51:08.169Z,18.92
2018-02-07T14:52:16.854Z,18.95
2018-02-07T14:53:25.805Z,18.87